createdAt,value
2023-02-21T00:01:47.349Z,100223.66
2023-02-21T00:04:33.895Z,100226.72
2023-02-21T00:07:19.193Z,100226.97
2023-02-21T00:10:04.729Z,100224.13
2023-02-21T00:12:50.052Z,100233.63
2023-02-21T00:15:35.448Z,100229.13
2023-02-21T00:18:20.670Z,100236.41
2023-02-21T00:21:07.206Z,100229.94
2023-02-21T00:23:53.116Z,100233.34
2023-02-21T00:26:38.487Z,100229.47
2023-02-21T00:29:23.915Z,100236.78
2023-02-21T00:32:09.432Z,100238.19
2023-02-21T00:34:57.256Z,100231.53
2023-02-21T00:37:43.758Z,100242.75
2023-02-21T00:40:31.065Z,100230.41
2023-02-21T00:43:16.536Z,100233.72
2023-02-21T00:46:01.888Z,100224.94
2023-02-21T00:48:47.227Z,100222.78
2023-02-21T00:51:32.531Z,100218.31
2023-02-21T00:54:19.138Z,100224.28
2023-02-21T00:57:04.598Z,100227.34
2023-02-21T00:59:49.768Z,100228.53
2023-02-21T01:02:35.141Z,100222.66
2023-02-21T01:05:20.381Z,100216.50
2023-02-21T01:08:05.556Z,100222.59
2023-02-21T01:10:52.236Z,100218.63
2023-02-21T01:13:37.343Z,100211.31
2023-02-21T01:16:25.830Z,100215.09
2023-02-21T01:19:10.925Z,100210.97
2023-02-21T01:21:56.145Z,100216.16
2023-02-21T01:24:41.343Z,100207.41
2023-02-21T01:27:27.835Z,100203.53
2023-02-21T01:30:13.215Z,100196.53
2023-02-21T01:32:58.610Z,100197.78
2023-02-21T01:35:43.728Z,100195.84
2023-02-21T01:38:29.067Z,100200.88
2023-02-21T01:41:14.752Z,100195.75
2023-02-21T01:44:16.239Z,100200.53
2023-02-21T01:47:01.679Z,100193.94
2023-02-21T01:49:47.491Z,100194.66
2023-02-21T01:52:32.636Z,100189.75
2023-02-21T01:55:17.845Z,100190.31
2023-02-21T01:58:04.847Z,100196.59
2023-02-21T02:00:51.836Z,100195.56
2023-02-21T02:03:39.316Z,100194.69
2023-02-21T02:06:27.645Z,100196.47
2023-02-21T02:09:12.981Z,100189.03
2023-02-21T02:12:23.220Z,100190.03
2023-02-21T02:15:19.453Z,100195.69
2023-02-21T02:18:02.892Z,100189.06
2023-02-21T02:20:52.801Z,100198.69
2023-02-21T02:23:57.845Z,100197.34
2023-02-21T02:26:49.995Z,100195.13
2023-02-21T02:29:38.460Z,100195.06
2023-02-21T02:32:26.292Z,100199.47
2023-02-21T02:35:01.106Z,100202.47
2023-02-21T02:37:33.948Z,100196.88
2023-02-21T02:40:10.038Z,100195.13
2023-02-21T02:42:49.966Z,100194.28
2023-02-21T02:45:23.767Z,100176.75
2023-02-21T02:47:56.404Z,100180.97
2023-02-21T02:50:27.399Z,100185.81
2023-02-21T02:52:56.547Z,100177.50
2023-02-21T02:55:33.207Z,100171.44
2023-02-21T02:58:02.631Z,100167.53
2023-02-21T03:00:31.875Z,100167.69
2023-02-21T03:03:31.812Z,100171.06
2023-02-21T03:06:21.168Z,100163.59
2023-02-21T03:08:58.098Z,100170.31
2023-02-21T03:11:27.698Z,100173.88
2023-02-21T03:14:00.512Z,100176.66
2023-02-21T03:16:32.554Z,100175.91
2023-02-21T03:19:05.243Z,100172.06
2023-02-21T03:21:41.789Z,100175.22
2023-02-21T03:24:11.538Z,100172.31
2023-02-21T03:26:43.221Z,100189.81
2023-02-21T03:29:12.459Z,100184.19
2023-02-21T03:31:45.385Z,100180.00
2023-02-21T03:34:13.162Z,100175.88
2023-02-21T03:36:42.952Z,100176.94
2023-02-21T03:39:10.500Z,100167.91
2023-02-21T03:41:38.007Z,100172.66
2023-02-21T03:44:05.770Z,100171.59
2023-02-21T03:46:33.820Z,100170.47
2023-02-21T03:49:01.360Z,100172.69
2023-02-21T03:51:28.829Z,100174.44
2023-02-21T03:53:57.649Z,100164.94
2023-02-21T03:56:33.414Z,100172.13
2023-02-21T03:59:07.912Z,100165.44
2023-02-21T04:01:35.508Z,100171.97
2023-02-21T04:04:02.985Z,100170.25
2023-02-21T04:06:30.476Z,100171.47
2023-02-21T04:08:59.303Z,100164.56
2023-02-21T04:11:26.890Z,100166.50
2023-02-21T04:13:54.474Z,100169.72
2023-02-21T04:16:22.002Z,100172.66
2023-02-21T04:18:49.546Z,100175.69
2023-02-21T04:21:17.967Z,100175.19
2023-02-21T04:23:45.500Z,100176.94
2023-02-21T04:26:14.346Z,100179.88
2023-02-21T04:28:41.825Z,100171.81
2023-02-21T04:31:09.312Z,100181.47
2023-02-21T04:33:37.009Z,100179.88
2023-02-21T04:36:04.829Z,100175.03
2023-02-21T04:38:32.535Z,100168.19
2023-02-21T04:40:59.994Z,100169.66
2023-02-21T04:43:28.815Z,100170.69
2023-02-21T04:45:56.359Z,100170.88
2023-02-21T04:48:23.860Z,100158.38
2023-02-21T04:50:51.423Z,100153.81
2023-02-21T04:53:19.061Z,100150.56
2023-02-21T04:55:46.532Z,100159.69
2023-02-21T04:58:14.064Z,100151.94
2023-02-21T05:00:42.956Z,100148.31
2023-02-21T05:03:10.522Z,100148.06
2023-02-21T05:05:38.228Z,100150.13
2023-02-21T05:08:05.785Z,100152.31
2023-02-21T05:10:44.890Z,100149.38
2023-02-21T05:13:13.179Z,100151.97
2023-02-21T05:15:40.711Z,100159.03
2023-02-21T05:18:09.768Z,100156.03
2023-02-21T05:20:37.253Z,100149.59
2023-02-21T05:23:13.445Z,100147.47
2023-02-21T05:25:41.589Z,100161.81
2023-02-21T05:28:09.126Z,100161.81
2023-02-21T05:30:36.687Z,100160.72
2023-02-21T05:33:05.392Z,100160.16
2023-02-21T05:35:34.469Z,100166.16
2023-02-21T05:38:02.236Z,100163.09
2023-02-21T05:40:29.744Z,100176.88
2023-02-21T05:42:57.354Z,100160.78
2023-02-21T05:45:24.853Z,100166.78
2023-02-21T05:47:56.186Z,100168.88
2023-02-21T05:50:23.674Z,100172.28
2023-02-21T05:52:52.521Z,100167.38
2023-02-21T05:55:20.609Z,100169.78
2023-02-21T05:57:48.145Z,100164.00
2023-02-21T06:00:18.255Z,100153.16
2023-02-21T06:02:45.878Z,100162.81
2023-02-21T06:05:13.636Z,100163.47
2023-02-21T06:07:41.143Z,100161.22
2023-02-21T06:10:10.184Z,100157.59
2023-02-21T06:12:37.903Z,100156.06
2023-02-21T06:15:07.233Z,100163.88
2023-02-21T06:17:34.813Z,100155.47
2023-02-21T06:20:02.313Z,100160.69
2023-02-21T06:22:29.819Z,100156.50
2023-02-21T06:24:57.283Z,100158.25
2023-02-21T06:27:26.199Z,100160.16
2023-02-21T06:29:53.716Z,100159.16
2023-02-21T06:32:21.237Z,100153.09
2023-02-21T06:34:48.763Z,100149.22
2023-02-21T06:37:16.257Z,100151.03
2023-02-21T06:39:43.755Z,100156.78
2023-02-21T06:42:13.913Z,100153.38
2023-02-21T06:44:44.168Z,100155.03
2023-02-21T06:47:11.667Z,100156.84
2023-02-21T06:49:39.229Z,100156.59
2023-02-21T06:52:07.187Z,100157.56
2023-02-21T06:54:35.270Z,100151.13
2023-02-21T06:57:02.799Z,100161.50
2023-02-21T06:59:30.562Z,100159.13
2023-02-21T07:01:59.491Z,100158.63
2023-02-21T07:04:27.132Z,100153.00
2023-02-21T07:06:55.371Z,100162.28
2023-02-21T07:09:22.893Z,100163.31
2023-02-21T07:11:51.414Z,100164.34
2023-02-21T07:14:18.914Z,100157.34
2023-02-21T07:16:46.396Z,100156.50
2023-02-21T07:21:43.757Z,100160.16
2023-02-21T07:24:11.295Z,100159.94
2023-02-21T07:26:39.000Z,100162.13
2023-02-21T07:29:07.533Z,100158.19
2023-02-21T07:31:35.444Z,100158.69
2023-02-21T07:34:04.159Z,100167.22
2023-02-21T07:36:33.231Z,100171.16
2023-02-21T07:39:00.756Z,100161.97
2023-02-21T07:41:28.263Z,100163.25
2023-02-21T07:43:56.191Z,100153.38
2023-02-21T07:46:28.137Z,100150.94
2023-02-21T07:48:55.778Z,100158.16
2023-02-21T07:51:23.556Z,100160.44
2023-02-21T07:53:52.562Z,100166.38
2023-02-21T07:56:20.038Z,100162.97
2023-02-21T07:58:47.815Z,100165.25
2023-02-21T08:01:15.619Z,100162.81
2023-02-21T08:03:43.518Z,100165.47
2023-02-21T08:06:11.946Z,100175.81
2023-02-21T08:08:39.785Z,100174.69
2023-02-21T08:11:08.693Z,100177.25
2023-02-21T08:13:36.204Z,100186.66
2023-02-21T08:16:07.264Z,100183.78
2023-02-21T08:18:34.752Z,100185.69
2023-02-21T08:21:02.265Z,100185.28
2023-02-21T08:23:29.868Z,100178.38
2023-02-21T08:25:57.363Z,100186.34
2023-02-21T08:28:26.206Z,100183.53
2023-02-21T08:30:53.814Z,100180.66
2023-02-21T08:33:32.529Z,100178.59
2023-02-21T08:36:04.125Z,100184.41
2023-02-21T08:38:31.742Z,100188.94
2023-02-21T08:40:59.257Z,100186.56
2023-02-21T08:43:30.303Z,100185.06
2023-02-21T08:46:00.622Z,100185.38
2023-02-21T08:48:28.231Z,100173.34
2023-02-21T08:50:56.029Z,100182.13
2023-02-21T08:53:26.288Z,100178.81
2023-02-21T08:55:54.055Z,100176.03
2023-02-21T08:58:49.370Z,100179.38
2023-02-21T09:01:20.330Z,100178.81
2023-02-21T09:03:49.385Z,100172.84
2023-02-21T09:06:17.879Z,100173.59
2023-02-21T09:08:55.448Z,100176.38
2023-02-21T09:11:22.946Z,100176.84
2023-02-21T09:13:52.984Z,100178.59
2023-02-21T09:16:25.114Z,100171.19
2023-02-21T09:18:56.852Z,100175.19
2023-02-21T09:21:24.387Z,100168.72
2023-02-21T09:23:53.939Z,100174.75
2023-02-21T09:26:23.913Z,100170.47
2023-02-21T09:28:53.349Z,100171.63
2023-02-21T09:31:24.006Z,100166.59
2023-02-21T09:33:51.552Z,100171.19
2023-02-21T09:36:24.040Z,100174.19
2023-02-21T09:38:53.560Z,100166.53
2023-02-21T09:41:21.466Z,100167.19
2023-02-21T09:43:52.008Z,100173.97
2023-02-21T09:46:29.775Z,100173.13
2023-02-21T09:48:57.776Z,100175.78
2023-02-21T09:51:26.057Z,100170.69
2023-02-21T09:53:56.964Z,100160.34
2023-02-21T09:56:29.504Z,100170.03
2023-02-21T09:58:58.850Z,100172.41
2023-02-21T10:01:44.010Z,100164.72
2023-02-21T10:04:22.468Z,100170.84
2023-02-21T10:06:56.259Z,100164.19
2023-02-21T10:09:31.609Z,100161.47
2023-02-21T10:12:06.841Z,100166.53
2023-02-21T10:14:51.276Z,100175.50
2023-02-21T10:17:24.456Z,100173.06
2023-02-21T10:19:55.653Z,100169.09
2023-02-21T10:22:27.953Z,100174.28
2023-02-21T10:24:55.877Z,100176.16
2023-02-21T10:27:27.379Z,100176.44
2023-02-21T10:29:58.522Z,100176.47
2023-02-21T10:32:28.232Z,100178.84
2023-02-21T10:34:56.195Z,100181.03
2023-02-21T10:37:34.259Z,100178.41
2023-02-21T10:40:08.210Z,100176.03
2023-02-21T10:42:40.875Z,100180.28
2023-02-21T10:45:09.860Z,100180.28
2023-02-21T10:47:51.922Z,100175.00
2023-02-21T10:50:39.148Z,100179.34
2023-02-21T10:53:07.716Z,100179.66
2023-02-21T10:55:36.036Z,100178.97
2023-02-21T10:58:09.921Z,100172.84
2023-02-21T11:00:42.104Z,100180.09
2023-02-21T11:03:23.892Z,100176.25
2023-02-21T11:05:54.172Z,100175.69
2023-02-21T11:08:37.631Z,100177.19
2023-02-21T11:11:05.574Z,100179.06
2023-02-21T11:13:35.981Z,100177.16
2023-02-21T11:16:12.556Z,100176.97
2023-02-21T11:18:41.454Z,100172.53
2023-02-21T11:21:15.197Z,100162.88
2023-02-21T11:23:46.929Z,100163.03
2023-02-21T11:26:16.784Z,100159.44
2023-02-21T11:28:47.906Z,100161.81
2023-02-21T11:31:27.459Z,100160.78
2023-02-21T11:34:00.476Z,100158.13
2023-02-21T11:36:31.326Z,100157.09
2023-02-21T11:39:06.004Z,100154.69
2023-02-21T11:41:39.423Z,100148.53
2023-02-21T11:44:29.968Z,100148.47
2023-02-21T11:47:06.351Z,100141.03
2023-02-21T11:49:45.146Z,100145.78
2023-02-21T11:52:20.211Z,100145.75
2023-02-21T11:54:47.711Z,100138.91
2023-02-21T11:57:22.971Z,100138.22
2023-02-21T11:59:56.711Z,100137.94
2023-02-21T12:02:54.822Z,100133.94
2023-02-21T12:05:35.311Z,100135.13
2023-02-21T12:08:23.043Z,100136.47
2023-02-21T12:10:59.137Z,100134.09
2023-02-21T12:13:36.274Z,100129.44
2023-02-21T12:16:12.896Z,100126.63
2023-02-21T12:18:57.920Z,100128.22
2023-02-21T12:21:56.541Z,100124.22
2023-02-21T12:24:35.712Z,100123.56
2023-02-21T12:27:12.399Z,100119.16
2023-02-21T12:29:57.134Z,100112.09
2023-02-21T12:32:38.241Z,100106.66
2023-02-21T12:35:33.980Z,100109.59
2023-02-21T12:38:08.140Z,100101.78
2023-02-21T12:40:49.328Z,100098.50
2023-02-21T12:43:32.536Z,100097.00
2023-02-21T12:46:08.590Z,100086.72
2023-02-21T12:48:55.010Z,100084.53
2023-02-21T12:51:26.894Z,100081.06
2023-02-21T12:54:00.913Z,100080.94
2023-02-21T12:56:33.968Z,100080.41
2023-02-21T13:02:02.751Z,100086.66
2023-02-21T13:04:42.473Z,100068.94
2023-02-21T13:07:19.121Z,100070.75
2023-02-21T13:09:55.448Z,100067.16
2023-02-21T13:12:37.183Z,100067.09
2023-02-21T13:15:17.207Z,100066.97
2023-02-21T13:17:56.482Z,100058.28
2023-02-21T13:20:30.983Z,100054.53
2023-02-21T13:23:40.642Z,100056.16
2023-02-21T13:26:33.637Z,100049.28
2023-02-21T13:31:53.089Z,100043.28
2023-02-21T13:34:35.941Z,100035.75
2023-02-21T13:37:16.592Z,100030.06
2023-02-21T13:39:47.426Z,100023.88
2023-02-21T13:42:20.387Z,100022.00
2023-02-21T13:44:51.700Z,100023.09
2023-02-21T13:47:21.511Z,100021.34
2023-02-21T13:49:51.861Z,100021.78
2023-02-21T13:52:57.570Z,100021.50
2023-02-21T13:55:27.249Z,100020.91
2023-02-21T13:58:27.214Z,100019.19
2023-02-21T14:00:57.993Z,100017.94
2023-02-21T14:03:34.725Z,100006.53
2023-02-21T14:06:29.352Z,100010.97
2023-02-21T14:09:01.268Z,100008.31
2023-02-21T14:11:32.054Z,100011.91
2023-02-21T14:14:03.073Z,100018.22
2023-02-21T14:16:35.525Z,100013.97
2023-02-21T14:19:07.723Z,100016.47
2023-02-21T14:21:37.833Z,100010.75
2023-02-21T14:24:12.226Z,100009.22
2023-02-21T14:26:51.673Z,99999.41
2023-02-21T14:29:35.120Z,99997.56
2023-02-21T14:32:35.604Z,99999.38
2023-02-21T14:35:22.064Z,100002.78
2023-02-21T14:37:54.513Z,99995.09
2023-02-21T14:40:34.572Z,100000.09
2023-02-21T14:43:17.629Z,99996.19
2023-02-21T14:46:07.195Z,99990.56
2023-02-21T14:48:52.401Z,99992.03
2023-02-21T14:51:54.303Z,99991.03
2023-02-21T14:54:57.533Z,99991.41
2023-02-21T14:57:43.911Z,99985.59
2023-02-21T15:00:23.776Z,99987.06
2023-02-21T15:02:57.854Z,99997.66
2023-02-21T15:05:31.358Z,99989.47
2023-02-21T15:08:05.792Z,99991.97
2023-02-21T15:10:40.502Z,99999.31
2023-02-21T15:13:20.975Z,99988.81
2023-02-21T15:15:48.509Z,99993.13
2023-02-21T15:18:27.011Z,99989.25
2023-02-21T15:21:19.396Z,99989.84
2023-02-21T15:23:48.879Z,99989.72
2023-02-21T15:26:19.687Z,99985.69
2023-02-21T15:28:47.193Z,99983.69
2023-02-21T15:31:16.457Z,99984.13
2023-02-21T15:33:45.177Z,99987.47
2023-02-21T15:36:19.562Z,99980.53
2023-02-21T15:38:50.801Z,99987.47
2023-02-21T15:41:28.619Z,99982.84
2023-02-21T15:44:00.886Z,99984.44
2023-02-21T15:46:35.116Z,99976.00
2023-02-21T15:49:04.699Z,99971.47
2023-02-21T15:51:33.973Z,99974.94
2023-02-21T15:54:23.317Z,99974.78
2023-02-21T15:57:07.881Z,99964.50
2023-02-21T15:59:37.533Z,99967.03
2023-02-21T16:02:14.605Z,99960.97
2023-02-21T16:04:44.110Z,99954.00
2023-02-21T16:07:21.342Z,99964.56
2023-02-21T16:09:51.296Z,99960.00
2023-02-21T16:12:31.998Z,99960.00
2023-02-21T16:15:01.872Z,99960.28
2023-02-21T16:17:33.044Z,99960.16
2023-02-21T16:20:05.230Z,99959.38
2023-02-21T16:22:53.953Z,99960.28
2023-02-21T16:25:25.611Z,99961.91
2023-02-21T16:27:54.408Z,99960.28
2023-02-21T16:30:23.978Z,99955.13
2023-02-21T16:32:53.389Z,99956.78
2023-02-21T16:35:23.208Z,99956.97
2023-02-21T16:37:54.434Z,99955.13
2023-02-21T16:40:24.934Z,99962.19
2023-02-21T16:42:53.943Z,99956.97
2023-02-21T16:45:22.090Z,99955.13
2023-02-21T16:47:51.995Z,99949.00
2023-02-21T16:50:23.681Z,99955.25
2023-02-21T16:52:52.513Z,99950.91
2023-02-21T16:55:20.867Z,99950.88
2023-02-21T16:57:49.716Z,99957.13
2023-02-21T17:00:21.041Z,99957.13
2023-02-21T17:02:49.173Z,99961.66
2023-02-21T17:05:17.054Z,99962.56
2023-02-21T17:07:44.917Z,99958.19
2023-02-21T17:10:13.989Z,99959.91
2023-02-21T17:12:41.697Z,99960.84
2023-02-21T17:15:10.837Z,99960.00
2023-02-21T17:17:38.686Z,99963.59
2023-02-21T17:20:07.928Z,99957.53
2023-02-21T17:22:37.332Z,99960.13
2023-02-21T17:25:05.375Z,99962.66
2023-02-21T17:27:34.468Z,99964.50
2023-02-21T17:30:01.982Z,99968.09
2023-02-21T17:32:30.625Z,99974.38
2023-02-21T17:34:58.175Z,99965.44
2023-02-21T17:37:25.642Z,99965.78
2023-02-21T17:39:54.245Z,99971.91
2023-02-21T17:42:22.194Z,99972.91
2023-02-21T17:44:51.808Z,99974.56
2023-02-21T17:47:19.980Z,99977.31
2023-02-21T17:49:48.923Z,99976.34
2023-02-21T17:52:17.140Z,99965.59
2023-02-21T17:54:44.836Z,99970.19
2023-02-21T17:57:12.682Z,99976.34
2023-02-21T17:59:40.676Z,99967.59
2023-02-21T18:02:09.485Z,99970.06
2023-02-21T18:04:37.342Z,99968.31
2023-02-21T18:07:04.869Z,99974.56
2023-02-21T18:09:32.857Z,99972.00
2023-02-21T18:12:01.576Z,99965.03
2023-02-21T18:14:32.126Z,99972.16
2023-02-21T18:16:59.886Z,99967.84
2023-02-21T18:19:29.549Z,99971.41
2023-02-21T18:21:57.105Z,99970.56
2023-02-21T18:24:25.430Z,99964.28
2023-02-21T18:26:52.917Z,99968.84
2023-02-21T18:29:20.443Z,99963.69
2023-02-21T18:31:54.066Z,99967.22
2023-02-21T18:34:22.014Z,99967.38
2023-02-21T18:36:52.516Z,99966.44
2023-02-21T18:39:21.745Z,99962.13
2023-02-21T18:41:49.822Z,99963.91
2023-02-21T18:44:17.420Z,99964.63
2023-02-21T18:46:50.757Z,99963.13
2023-02-21T18:49:18.323Z,99959.50
2023-02-21T18:51:45.830Z,99961.38
2023-02-21T18:54:14.777Z,99955.13
2023-02-21T18:56:48.773Z,99961.13
2023-02-21T18:59:16.537Z,99950.59
2023-02-21T19:01:44.282Z,99950.66
2023-02-21T19:04:13.006Z,99949.72
2023-02-21T19:06:40.505Z,99942.59
2023-02-21T19:09:08.023Z,99935.69
2023-02-21T19:11:36.897Z,99940.03
2023-02-21T19:14:05.624Z,99940.88
2023-02-21T19:16:33.889Z,99932.97
2023-02-21T19:19:03.274Z,99936.53
2023-02-21T19:21:31.833Z,99934.69
2023-02-21T19:23:59.739Z,99932.09
2023-02-21T19:26:30.204Z,99933.13
2023-02-21T19:28:59.135Z,99929.75
2023-02-21T19:31:27.290Z,99925.44
2023-02-21T19:33:55.096Z,99927.06
2023-02-21T19:36:23.254Z,99926.25
2023-02-21T19:38:50.824Z,99927.97
2023-02-21T19:41:19.980Z,99931.63
2023-02-21T19:43:47.964Z,99922.72
2023-02-21T19:46:25.131Z,99921.59
2023-02-21T19:48:53.356Z,99927.91
2023-02-21T19:51:23.696Z,99936.78
2023-02-21T19:53:51.262Z,99931.38
2023-02-21T19:56:19.063Z,99928.84
2023-02-21T19:58:47.252Z,99930.50
2023-02-21T20:01:15.208Z,99927.06
2023-02-21T20:03:44.487Z,99935.03
2023-02-21T20:06:12.041Z,99927.97
2023-02-21T20:08:39.514Z,99928.84
2023-02-21T20:11:07.320Z,99931.56
2023-02-21T20:13:37.124Z,99927.06
2023-02-21T20:16:04.879Z,99918.53
2023-02-21T20:18:32.418Z,99923.78
2023-02-21T20:21:01.241Z,99929.97
2023-02-21T20:23:28.740Z,99923.84
2023-02-21T20:25:56.572Z,99923.00
2023-02-21T20:28:24.113Z,99920.94
2023-02-21T20:30:51.817Z,99920.81
2023-02-21T20:33:20.594Z,99909.47
2023-02-21T20:35:48.158Z,99913.75
2023-02-21T20:38:16.999Z,99915.53
2023-02-21T20:40:45.833Z,99914.69
2023-02-21T20:43:13.624Z,99918.25
2023-02-21T20:45:41.215Z,99907.69
2023-02-21T20:48:10.916Z,99916.69
2023-02-21T20:50:39.420Z,99901.63
2023-02-21T20:53:06.916Z,99910.53
2023-02-21T20:55:37.375Z,99908.88
2023-02-21T20:58:05.617Z,99908.03
2023-02-21T21:00:36.506Z,99902.56
2023-02-21T21:03:05.108Z,99900.84
2023-02-21T21:05:33.118Z,99900.06
2023-02-21T21:08:01.515Z,99893.78
2023-02-21T21:10:29.152Z,99900.19
2023-02-21T21:12:58.247Z,99895.94
2023-02-21T21:15:26.072Z,99895.13
2023-02-21T21:17:53.616Z,99894.13
2023-02-21T21:20:23.072Z,99891.34
2023-02-21T21:22:51.117Z,99895.94
2023-02-21T21:25:18.891Z,99887.88
2023-02-21T21:27:47.352Z,99885.28
2023-02-21T21:30:22.432Z,99875.50
2023-02-21T21:32:50.274Z,99870.25
2023-02-21T21:35:19.697Z,99873.91
2023-02-21T21:37:47.685Z,99869.44
2023-02-21T21:40:16.678Z,99864.13
2023-02-21T21:42:45.929Z,99866.00
2023-02-21T21:45:19.276Z,99866.88
2023-02-21T21:47:47.587Z,99860.81
2023-02-21T21:50:16.471Z,99859.97
2023-02-21T21:52:44.751Z,99852.72
2023-02-21T21:55:18.780Z,99853.09
2023-02-21T21:57:53.140Z,99845.13
2023-02-21T22:00:24.601Z,99853.16
2023-02-21T22:02:56.942Z,99849.44
2023-02-21T22:05:25.590Z,99838.22
2023-02-21T22:07:53.303Z,99835.47
2023-02-21T22:10:21.921Z,99828.31
2023-02-21T22:12:50.848Z,99831.00
2023-02-21T22:15:20.343Z,99826.78
2023-02-21T22:17:49.838Z,99830.28
2023-02-21T22:20:19.698Z,99833.94
2023-02-21T22:22:48.920Z,99831.34
2023-02-21T22:25:17.178Z,99833.44
2023-02-21T22:27:44.687Z,99834.09
2023-02-21T22:30:15.221Z,99832.09
2023-02-21T22:32:43.423Z,99836.56
2023-02-21T22:35:18.146Z,99833.00
2023-02-21T22:37:47.464Z,99833.94
2023-02-21T22:40:23.805Z,99833.00
2023-02-21T22:42:52.356Z,99830.50
2023-02-21T22:45:21.865Z,99826.97
2023-02-21T22:47:50.435Z,99826.38
2023-02-21T22:50:20.938Z,99822.66
2023-02-21T22:52:51.031Z,99820.91
2023-02-21T22:55:18.711Z,99817.31
2023-02-21T22:57:46.365Z,99824.38
2023-02-21T23:00:20.029Z,99812.94
2023-02-21T23:02:48.533Z,99814.66
2023-02-21T23:05:19.606Z,99811.16
2023-02-21T23:07:50.114Z,99798.88
2023-02-21T23:10:19.516Z,99796.31
2023-02-21T23:12:48.123Z,99795.53
2023-02-21T23:15:18.282Z,99792.94
2023-02-21T23:17:48.012Z,99785.03
2023-02-21T23:20:22.025Z,99777.88
2023-02-21T23:22:53.729Z,99770.94
2023-02-21T23:25:25.367Z,99777.31
2023-02-21T23:27:55.923Z,99767.63
2023-02-21T23:30:27.496Z,99774.75
2023-02-21T23:32:56.473Z,99767.88
2023-02-21T23:35:24.181Z,99760.78
2023-02-21T23:37:53.293Z,99768.69
2023-02-21T23:40:27.866Z,99759.16
2023-02-21T23:42:56.196Z,99763.63
2023-02-21T23:45:26.252Z,99759.25
2023-02-21T23:47:56.272Z,99752.38
2023-02-21T23:50:30.328Z,99756.00
2023-02-21T23:52:59.835Z,99756.84
2023-02-21T23:55:29.866Z,99748.81
2023-02-21T23:58:01.890Z,99743.63
